Time;durP1;ratioP1;P1;durP2;ratioP2;P2;SDS_P1;SDS_P2;PMS_P1;PMS_P2;Temp;Humidity;BMP_temperature;BMP_pressure;BME280_temperature;BME280_humidity;BME280_pressure;Samples;Min_cycle;Max_cycle;Signal;HPM_P1;HPM_P2
2023/03/29 00:01:15;;;;;;;10.60;5.60;;;;;;;-1.73;67.32;101124.52;104987;1264;99094;-77
2023/03/29 00:04:01;;;;;;;15.00;6.20;;;;;;;-1.75;67.32;101126.60;104930;1264;98860;-77
2023/03/29 00:06:47;;;;;;;13.70;6.10;;;;;;;-1.78;67.33;101128.33;104816;1270;97982;-77
2023/03/29 00:09:32;;;;;;;12.90;6.30;;;;;;;-1.79;67.34;101130.16;105008;1264;98523;-77
2023/03/29 00:12:17;;;;;;;12.60;6.10;;;;;;;-1.80;67.40;101133.04;105046;1270;101345;-77
2023/03/29 00:15:05;;;;;;;12.30;5.60;;;;;;;-1.81;67.30;101132.91;104773;1269;99294;-79
2023/03/29 00:17:50;;;;;;;8.50;5.70;;;;;;;-1.82;67.41;101133.48;105024;1264;98857;-78
2023/03/29 00:20:36;;;;;;;16.90;5.70;;;;;;;-1.83;67.38;101134.08;104701;1279;97964;-78
2023/03/29 00:23:23;;;;;;;11.70;5.40;;;;;;;-1.84;67.33;101138.20;104993;1264;97997;-77
2023/03/29 00:26:10;;;;;;;9.50;5.60;;;;;;;-1.85;67.43;101141.23;104969;1272;101332;-76
2023/03/29 00:28:56;;;;;;;11.80;5.90;;;;;;;-1.85;67.52;101140.16;105007;1264;99136;-78
2023/03/29 00:31:43;;;;;;;13.00;5.80;;;;;;;-1.85;67.58;101137.02;104723;1263;97973;-77
2023/03/29 00:34:31;;;;;;;15.80;6.80;;;;;;;-1.86;67.63;101140.38;105013;1264;97969;-77
2023/03/29 00:37:17;;;;;;;15.00;6.50;;;;;;;-1.87;67.78;101140.98;104975;1276;98504;-79
2023/03/29 00:40:11;;;;;;;10.90;5.40;;;;;;;-1.88;67.94;101140.14;104923;1270;101327;-79
2023/03/29 00:42:57;;;;;;;12.20;5.60;;;;;;;-1.87;67.93;101140.48;105732;1267;99444;-77
2023/03/29 00:45:42;;;;;;;10.50;4.00;;;;;;;-1.88;67.89;101144.73;104948;1279;99132;-77
2023/03/29 00:48:28;;;;;;;12.30;4.80;;;;;;;-1.89;68.00;101139.55;104603;1269;97973;-77
2023/03/29 00:51:17;;;;;;;10.80;5.20;;;;;;;-1.89;68.21;101139.89;104567;1264;98655;-76
2023/03/29 00:54:08;;;;;;;13.50;5.40;;;;;;;-1.90;68.34;101141.38;104621;1269;101397;-77
2023/03/29 00:56:54;;;;;;;11.30;5.00;;;;;;;-1.92;68.48;101142.33;104613;1269;100125;-76
2023/03/29 00:59:42;;;;;;;10.60;5.00;;;;;;;-1.93;68.57;101141.20;104612;1264;98907;-77
2023/03/29 01:02:28;;;;;;;12.00;5.30;;;;;;;-1.95;68.73;101142.52;104491;1264;98083;-76
2023/03/29 01:05:18;;;;;;;10.10;4.80;;;;;;;-1.95;68.89;101140.98;104630;1263;98407;-77
2023/03/29 01:08:09;;;;;;;14.50;5.50;;;;;;;-1.96;68.97;101139.62;104650;1265;101400;-78
2023/03/29 01:11:18;;;;;;;8.90;5.10;;;;;;;-1.97;69.25;101137.92;104929;1270;99170;-78
2023/03/29 01:14:20;;;;;;;13.50;5.90;;;;;;;-1.99;69.32;101137.71;105033;1264;97986;-78
2023/03/29 01:17:06;;;;;;;11.20;5.50;;;;;;;-1.99;69.53;101138.25;104431;1273;98092;-76
2023/03/29 01:19:58;;;;;;;11.80;5.50;;;;;;;-1.99;69.58;101135.65;104416;1272;98508;-77
2023/03/29 01:23:12;;;;;;;16.20;5.40;;;;;;;-2.00;69.78;101132.38;104771;1270;101827;-75
2023/03/29 01:26:17;;;;;;;14.70;6.20;;;;;;;-2.00;70.05;101130.63;104723;1268;99114;-76
2023/03/29 01:29:08;;;;;;;14.10;5.50;;;;;;;-2.00;70.25;101134.66;104812;1270;98041;-78
2023/03/29 01:32:15;;;;;;;13.30;5.40;;;;;;;-2.02;70.35;101131.94;104570;1264;98120;-76
2023/03/29 01:35:14;;;;;;;13.20;4.80;;;;;;;-2.03;70.46;101130.27;104726;1264;98502;-78
2023/03/29 01:38:04;;;;;;;13.10;5.60;;;;;;;-2.03;70.72;101129.89;104967;1263;102614;-78
2023/03/29 01:40:49;;;;;;;11.40;5.10;;;;;;;-2.02;70.80;101129.00;105497;1268;100865;-77
2023/03/29 01:43:50;;;;;;;9.60;4.80;;;;;;;-2.02;70.83;101128.48;104997;1270;98991;-79
2023/03/29 01:46:47;;;;;;;9.50;5.20;;;;;;;-2.04;71.00;101125.95;104932;1267;98061;-78
2023/03/29 01:49:42;;;;;;;13.60;5.50;;;;;;;-2.05;71.19;101125.48;105004;1276;98580;-78
2023/03/29 01:52:35;;;;;;;12.10;6.10;;;;;;;-2.06;71.40;101125.71;105025;1264;102578;-77
2023/03/29 01:55:25;;;;;;;14.40;5.30;;;;;;;-2.05;71.50;101130.55;104902;1268;100372;-77
2023/03/29 01:58:13;;;;;;;14.30;6.10;;;;;;;-2.05;71.61;101128.32;104957;1264;99055;-77
2023/03/29 02:01:04;;;;;;;12.70;5.30;;;;;;;-2.07;71.65;101127.88;104786;1267;98083;-75
2023/03/29 02:03:53;;;;;;;;;;;;;;;-2.07;71.78;101127.52;104659;1264;98546;-77
2023/03/29 02:06:40;;;;;;;11.20;5.20;;;;;;;-2.08;71.93;101127.25;104701;1267;102188;-77
2023/03/29 02:09:28;;;;;;;11.50;5.80;;;;;;;-2.08;71.91;101125.33;104669;1266;99082;-77
2023/03/29 02:12:15;;;;;;;11.60;5.80;;;;;;;-2.09;72.16;101127.15;104671;1264;98473;-77
2023/03/29 02:15:01;;;;;;;12.70;6.40;;;;;;;-2.09;72.26;101130.84;104794;1269;97971;-78
2023/03/29 02:17:49;;;;;;;10.30;5.20;;;;;;;-2.08;72.41;101136.73;104687;1269;99654;-77
2023/03/29 02:20:39;;;;;;;10.20;5.80;;;;;;;-2.10;72.41;101139.08;104544;1274;102686;-75
2023/03/29 02:23:39;;;;;;;11.70;6.50;;;;;;;-2.12;72.50;101135.73;104794;1263;100731;-77
2023/03/29 02:26:27;;;;;;;12.40;6.10;;;;;;;-2.13;72.63;101138.59;104762;1263;99275;-76
2023/03/29 02:29:14;;;;;;;12.70;6.20;;;;;;;-2.12;72.80;101139.26;104767;1264;98045;-77
2023/03/29 02:32:08;;;;;;;11.60;5.00;;;;;;;-2.17;72.95;101139.36;104638;1273;98028;-76
2023/03/29 02:35:00;;;;;;;12.40;5.40;;;;;;;-2.19;73.21;101144.92;104782;1267;101420;-77
2023/03/29 02:37:50;;;;;;;10.70;5.80;;;;;;;-2.21;73.44;101143.14;104652;1264;99273;-78
2023/03/29 02:40:38;;;;;;;10.10;5.80;;;;;;;-2.23;73.64;101139.91;104730;1264;97889;-76
2023/03/29 02:43:26;;;;;;;15.90;6.50;;;;;;;-2.23;73.70;101137.45;105062;1267;97993;-76
2023/03/29 02:46:13;;;;;;;13.30;5.80;;;;;;;-2.23;73.72;101135.88;105088;1278;97980;-75
2023/03/29 02:48:59;;;;;;;14.20;6.20;;;;;;;-2.23;73.90;101140.61;104759;1268;102024;-76
2023/03/29 02:51:47;;;;;;;13.70;5.90;;;;;;;-2.22;74.00;101140.73;104671;1269;99568;-78
2023/03/29 02:54:36;;;;;;;13.90;5.70;;;;;;;-2.23;74.08;101140.46;104565;1264;98003;-77
2023/03/29 02:57:25;;;;;;;13.00;6.20;;;;;;;-2.25;74.26;101142.30;104558;1264;98063;-77
2023/03/29 03:00:13;;;;;;;13.00;5.10;;;;;;;-2.25;74.30;101140.19;104780;1270;98436;-77
2023/03/29 03:02:59;;;;;;;11.80;5.60;;;;;;;-2.25;74.50;101140.21;104696;1269;102081;-77
2023/03/29 03:05:44;;;;;;;10.20;5.10;;;;;;;-2.27;74.42;101141.58;104657;1267;99891;-78
2023/03/29 03:08:30;;;;;;;12.10;5.60;;;;;;;-2.26;74.61;101146.41;104744;1266;98007;-78
2023/03/29 03:11:17;;;;;;;16.60;7.80;;;;;;;-2.26;74.85;101149.35;104668;1270;97889;-76
2023/03/29 03:14:02;;;;;;;19.10;7.10;;;;;;;-2.24;74.80;101147.67;104874;1266;98622;-75
2023/03/29 03:16:48;;;;;;;18.60;7.90;;;;;;;-2.23;74.85;101145.50;105624;1264;102649;-77
2023/03/29 03:19:35;;;;;;;17.80;7.90;;;;;;;-2.22;74.79;101148.74;104587;1279;100349;-78
2023/03/29 03:22:20;;;;;;;14.30;7.40;;;;;;;-2.21;74.98;101150.85;104742;1264;97967;-77
2023/03/29 03:25:09;;;;;;;13.70;6.40;;;;;;;-2.20;74.96;101153.91;104658;1264;98137;-78
2023/03/29 03:27:54;;;;;;;13.90;6.80;;;;;;;-2.21;74.89;101155.50;104624;1264;98515;-77
2023/03/29 03:30:42;;;;;;;11.50;6.00;;;;;;;-2.21;74.96;101154.84;104600;1270;101424;-77
2023/03/29 03:33:44;;;;;;;8.70;5.50;;;;;;;-2.22;75.05;101150.50;104829;1267;100940;-76
2023/03/29 03:36:56;;;;;;;16.10;7.30;;;;;;;-2.24;75.12;101154.29;104691;1265;98640;-77
2023/03/29 03:39:42;;;;;;;12.40;5.80;;;;;;;-2.25;75.24;101151.38;104741;1264;98195;-76
2023/03/29 03:42:28;;;;;;;13.60;7.00;;;;;;;-2.25;75.26;101157.68;105313;1264;97954;-78
2023/03/29 03:45:14;;;;;;;13.00;5.20;;;;;;;-2.26;75.32;101156.70;104948;1267;101371;-77
2023/03/29 03:48:29;;;;;;;13.70;6.40;;;;;;;-2.25;75.31;101159.11;104832;1264;100186;-77
2023/03/29 03:51:23;;;;;;;10.10;5.30;;;;;;;-2.25;75.43;101158.38;105060;1264;99071;-77
2023/03/29 03:54:08;;;;;;;14.60;6.50;;;;;;;-2.25;75.58;101162.05;104912;1270;98061;-76
2023/03/29 03:57:14;;;;;;;11.30;5.90;;;;;;;-2.25;75.54;101161.23;105041;1263;97984;-77
2023/03/29 04:00:18;;;;;;;11.70;5.50;;;;;;;-2.26;75.66;101164.61;104633;1264;102079;-76
2023/03/29 04:03:04;;;;;;;8.60;4.70;;;;;;;-2.29;75.56;101164.09;104648;1270;99089;-77
2023/03/29 04:05:52;;;;;;;15.40;7.00;;;;;;;-2.31;75.71;101172.77;105012;1264;97993;-77
2023/03/29 04:08:39;;;;;;;14.00;5.30;;;;;;;-2.31;75.80;101176.92;104688;1264;98036;-78
2023/03/29 04:11:43;;;;;;;16.20;5.80;;;;;;;-2.31;75.73;101180.44;104924;1264;98522;-77
2023/03/29 04:14:31;;;;;;;11.70;6.30;;;;;;;-2.31;75.71;101179.92;104909;1264;102115;-77
2023/03/29 04:17:29;;;;;;;22.50;12.40;;;;;;;-2.32;75.83;101180.54;104970;1268;99152;-77
2023/03/29 04:20:17;;;;;;;25.40;14.90;;;;;;;-2.33;75.88;101180.70;104922;1264;98781;-77
2023/03/29 04:23:03;;;;;;;20.70;12.60;;;;;;;-2.34;75.93;101179.59;104572;1264;98903;-77
2023/03/29 04:25:54;;;;;;;14.80;8.90;;;;;;;-2.36;76.01;101177.77;104618;1268;99579;-75
2023/03/29 04:28:58;;;;;;;15.20;8.60;;;;;;;-2.36;76.28;101174.63;104590;1268;101471;-76
2023/03/29 04:31:53;;;;;;;12.10;6.90;;;;;;;-2.39;76.10;101174.08;104608;1264;100484;-76
2023/03/29 04:34:56;;;;;;;14.60;6.40;;;;;;;-2.40;76.17;101171.70;104627;1281;98009;-76
2023/03/29 04:37:43;;;;;;;15.90;7.00;;;;;;;-2.42;76.25;101172.34;104530;1270;97989;-76
2023/03/29 04:40:30;;;;;;;14.00;7.30;;;;;;;-2.41;76.32;101172.98;104522;1270;97969;-78
2023/03/29 04:43:31;;;;;;;13.60;8.00;;;;;;;-2.42;76.44;101173.73;104597;1264;102026;-76
2023/03/29 04:46:31;;;;;;;18.70;7.10;;;;;;;-2.43;76.51;101176.08;104629;1264;99684;-77
2023/03/29 04:49:40;;;;;;;11.10;6.70;;;;;;;-2.42;76.54;101176.75;104629;1270;99343;-77
2023/03/29 04:52:31;;;;;;;18.30;7.40;;;;;;;-2.43;76.59;101175.36;104538;1270;99146;-75
2023/03/29 04:55:18;;;;;;;14.20;7.10;;;;;;;-2.42;76.72;101172.53;104558;1264;98415;-77
2023/03/29 04:58:13;;;;;;;13.40;7.40;;;;;;;-2.43;76.78;101174.16;104568;1269;101383;-77
2023/03/29 05:01:00;;;;;;;13.50;7.00;;;;;;;-2.44;76.91;101174.73;104558;1264;100230;-76
2023/03/29 05:03:56;;;;;;;13.90;6.20;;;;;;;-2.43;77.02;101171.71;104636;1267;98737;-78
2023/03/29 05:06:46;;;;;;;14.60;7.00;;;;;;;-2.44;77.08;101173.65;104844;1268;98006;-76
2023/03/29 05:09:31;;;;;;;12.60;6.30;;;;;;;-2.44;77.19;101170.52;104670;1263;98469;-76
2023/03/29 05:12:18;;;;;;;18.10;7.80;;;;;;;-2.43;77.27;101173.11;104617;1264;101387;-77
2023/03/29 05:15:13;;;;;;;13.80;7.30;;;;;;;-2.42;77.39;101172.84;104778;1268;99777;-77
2023/03/29 05:17:59;;;;;;;14.80;7.00;;;;;;;-2.41;77.47;101175.78;104608;1267;99330;-79
2023/03/29 05:20:46;;;;;;;14.70;6.30;;;;;;;-2.38;77.56;101174.06;104551;1270;97954;-77
2023/03/29 05:23:35;;;;;;;16.40;8.30;;;;;;;-2.37;77.72;101176.09;104633;1265;98493;-77
2023/03/29 05:26:26;;;;;;;13.40;7.80;;;;;;;-2.36;77.77;101175.13;104710;1264;101462;-76
2023/03/29 05:29:13;;;;;;;15.40;7.60;;;;;;;-2.34;77.84;101172.05;104811;1266;99725;-76
2023/03/29 05:32:00;;;;;;;14.70;8.20;;;;;;;-2.33;77.94;101174.77;104528;1264;107745;-76
2023/03/29 05:34:46;;;;;;;12.70;7.30;;;;;;;-2.29;78.15;101174.36;104541;1264;99003;-76
2023/03/29 05:37:35;;;;;;;12.70;6.40;;;;;;;-2.25;78.29;101179.21;104568;1270;99633;-77
2023/03/29 05:40:21;;;;;;;14.80;7.80;;;;;;;-2.20;78.34;101183.81;104586;1264;102590;-77
2023/03/29 05:43:42;;;;;;;13.70;6.90;;;;;;;-2.14;78.44;101186.26;104620;1269;99171;-78
2023/03/29 05:46:28;;;;;;;13.30;6.70;;;;;;;-2.09;78.39;101186.26;104717;1268;99585;-76
2023/03/29 05:49:15;;;;;;;14.60;7.10;;;;;;;-2.03;78.41;101186.97;105128;1264;97968;-77
2023/03/29 05:52:17;;;;;;;;;;;;;;;-1.98;78.32;101190.48;105758;1264;98044;-77
2023/03/29 05:55:04;;;;;;;13.20;6.80;;;;;;;-1.92;78.44;101194.70;104990;1268;102607;-76
2023/03/29 05:57:50;;;;;;;14.00;6.60;;;;;;;-1.87;78.32;101193.48;104793;1268;99136;-77
2023/03/29 06:00:38;;;;;;;11.90;6.40;;;;;;;-1.80;78.16;101191.30;105025;1263;97921;-77
2023/03/29 06:03:33;;;;;;;16.90;9.80;;;;;;;-1.72;78.09;101196.23;104667;1263;99356;-76
2023/03/29 06:06:20;;;;;;;12.70;7.40;;;;;;;-1.65;78.10;101199.67;104586;1265;98506;-76
2023/03/29 06:09:07;;;;;;;12.40;6.50;;;;;;;-1.56;78.01;101199.13;104746;1267;101419;-77
2023/03/29 06:11:56;;;;;;;12.40;6.90;;;;;;;-1.48;77.88;101197.02;104643;1264;100539;-77
2023/03/29 06:14:48;;;;;;;13.20;6.50;;;;;;;-1.40;77.60;101194.60;104801;1267;97967;-77
2023/03/29 06:17:45;;;;;;;11.50;5.80;;;;;;;-1.33;77.22;101197.66;104790;1265;99257;-76
2023/03/29 06:20:32;;;;;;;13.60;5.60;;;;;;;-1.26;77.10;101198.95;104887;1270;98496;-79
2023/03/29 06:23:23;;;;;;;14.30;5.90;;;;;;;-1.18;76.86;101202.84;104887;1263;102609;-78
2023/03/29 06:26:09;;;;;;;11.80;6.00;;;;;;;-1.10;76.80;101206.50;104542;1264;99198;-77
2023/03/29 06:28:56;;;;;;;14.80;7.00;;;;;;;-1.00;76.57;101208.84;104699;1270;98975;-77
2023/03/29 06:31:41;;;;;;;11.10;6.00;;;;;;;-0.91;76.51;101208.90;104889;1271;97942;-78
2023/03/29 06:34:29;;;;;;;9.50;4.60;;;;;;;-0.81;76.37;101210.02;104914;1270;97981;-78
2023/03/29 06:37:28;;;;;;;11.50;5.10;;;;;;;-0.71;76.17;101207.63;105055;1268;102624;-76
2023/03/29 06:40:27;;;;;;;12.30;5.80;;;;;;;-0.59;76.12;101203.35;104983;1268;99112;-78
2023/03/29 06:43:13;;;;;;;10.40;5.50;;;;;;;-0.50;75.80;101204.61;105111;1268;98008;-78
2023/03/29 06:46:11;;;;;;;10.00;4.90;;;;;;;-0.37;75.91;101205.02;104797;1270;97958;-79
2023/03/29 06:49:12;;;;;;;11.80;5.50;;;;;;;-0.25;75.72;101206.05;105031;1264;98853;-76
2023/03/29 06:52:19;;;;;;;12.30;6.80;;;;;;;-0.14;75.20;101208.48;105233;1264;101364;-78
2023/03/29 06:55:06;;;;;;;14.20;5.80;;;;;;;-0.06;74.88;101211.63;104848;1264;100535;-77
2023/03/29 06:57:52;;;;;;;11.40;6.10;;;;;;;0.02;74.98;101211.41;105243;1270;98479;-77
2023/03/29 07:00:38;;;;;;;12.70;5.80;;;;;;;0.12;74.84;101210.77;104824;1264;98842;-78
2023/03/29 07:03:28;;;;;;;11.00;5.20;;;;;;;0.20;74.30;101212.47;105108;1268;97954;-78
2023/03/29 07:06:16;;;;;;;10.60;5.40;;;;;;;0.27;74.24;101212.14;104864;1268;102621;-78
2023/03/29 07:09:05;;;;;;;12.40;5.50;;;;;;;0.35;74.06;101209.81;105078;1267;99186;-77
2023/03/29 07:12:04;;;;;;;11.90;5.90;;;;;;;0.45;74.07;101210.15;104804;1269;98647;-78
2023/03/29 07:14:50;;;;;;;12.40;6.10;;;;;;;0.55;73.59;101214.18;104875;1265;99330;-78
2023/03/29 07:17:35;;;;;;;10.40;5.50;;;;;;;0.63;73.21;101216.59;104912;1264;98089;-78
2023/03/29 07:20:21;;;;;;;8.20;6.20;;;;;;;0.72;72.97;101216.14;104923;1263;102299;-77
2023/03/29 07:23:14;;;;;;;11.20;6.70;;;;;;;0.82;72.51;101215.46;104739;1264;100752;-77
2023/03/29 07:26:01;;;;;;;9.70;5.60;;;;;;;0.90;72.20;101215.55;104692;1264;99379;-78
2023/03/29 07:28:47;;;;;;;10.60;6.20;;;;;;;0.98;71.79;101217.77;104903;1264;97904;-76
2023/03/29 07:31:37;;;;;;;9.30;5.70;;;;;;;1.06;71.42;101215.59;105017;1264;98521;-77
2023/03/29 07:34:43;;;;;;;11.90;6.10;;;;;;;1.14;70.47;101212.95;104926;1264;101339;-78
2023/03/29 07:37:36;;;;;;;10.30;4.70;;;;;;;1.19;70.00;101208.83;105526;1264;99290;-81
2023/03/29 07:40:22;;;;;;;9.40;5.60;;;;;;;1.27;70.36;101208.23;105706;1264;98993;-76
2023/03/29 07:43:17;;;;;;;12.00;5.30;;;;;;;1.38;70.44;101209.35;104965;1268;97983;-77
2023/03/29 07:46:05;;;;;;;13.90;6.90;;;;;;;1.49;69.93;101206.59;105240;1264;97927;-80
2023/03/29 07:48:52;;;;;;;7.30;4.70;;;;;;;1.58;69.32;101210.10;105099;1264;101463;-79
2023/03/29 07:51:38;;;;;;;11.00;4.80;;;;;;;1.67;68.27;101206.80;105152;1268;100440;-78
2023/03/29 07:54:27;;;;;;;9.80;4.50;;;;;;;1.73;67.41;101207.24;105034;1270;98000;-77
2023/03/29 07:57:35;;;;;;;7.40;4.10;;;;;;;1.78;67.02;101202.45;105079;1264;98147;-79
2023/03/29 08:00:21;;;;;;;8.00;3.80;;;;;;;1.86;67.21;101204.50;104663;1265;97985;-77
2023/03/29 08:03:14;;;;;;;12.10;4.90;;;;;;;1.93;66.58;101203.36;105073;1268;101354;-78
2023/03/29 08:06:01;;;;;;;9.30;5.20;;;;;;;2.01;66.29;101201.50;104972;1264;100354;-77
2023/03/29 08:08:47;;;;;;;8.70;6.20;;;;;;;2.11;65.97;101198.10;104946;1270;98739;-79
2023/03/29 08:11:37;;;;;;;10.60;4.70;;;;;;;2.20;65.29;101196.52;107255;1265;98002;-79
2023/03/29 08:14:26;;;;;;;7.30;4.70;;;;;;;2.30;64.61;101194.52;105326;1268;97978;-78
2023/03/29 08:17:36;;;;;;;8.30;4.90;;;;;;;2.38;63.10;101194.27;105011;1268;102676;-78
2023/03/29 08:20:23;;;;;;;7.50;4.00;;;;;;;2.44;62.57;101193.92;105026;1264;99106;-78
2023/03/29 08:23:10;;;;;;;15.00;4.50;;;;;;;2.51;61.99;101192.64;105226;1264;98996;-78
2023/03/29 08:25:56;;;;;;;9.30;4.60;;;;;;;2.60;61.68;101191.81;105100;1268;97975;-76
2023/03/29 08:28:42;;;;;;;9.50;4.20;;;;;;;2.67;60.97;101189.95;104793;1264;98508;-76
2023/03/29 08:31:29;;;;;;;13.70;3.90;;;;;;;2.73;60.84;101189.52;104706;1268;102245;-76
2023/03/29 08:34:15;;;;;;;8.00;4.10;;;;;;;2.78;60.31;101188.92;104756;1264;99110;-76
2023/03/29 08:37:09;;;;;;;9.00;3.70;;;;;;;2.84;59.55;101188.23;104959;1268;97779;-77
2023/03/29 08:40:00;;;;;;;7.60;3.50;;;;;;;2.90;59.01;101184.95;104853;1268;98006;-77
2023/03/29 08:43:08;;;;;;;8.80;4.20;;;;;;;2.97;58.82;101176.42;104749;1270;97923;-78
2023/03/29 08:46:21;;;;;;;12.60;4.60;;;;;;;3.06;57.90;101175.50;104803;1264;101404;-77
2023/03/29 08:49:11;;;;;;;6.90;3.50;;;;;;;3.15;57.48;101169.85;105107;1264;99144;-78
2023/03/29 08:52:02;;;;;;;9.60;5.00;;;;;;;3.22;57.01;101165.38;104936;1269;98005;-79
2023/03/29 08:54:54;;;;;;;10.50;4.30;;;;;;;3.27;57.12;101166.52;105078;1268;99285;-78
2023/03/29 08:57:49;;;;;;;10.40;5.90;;;;;;;3.32;56.37;101167.38;105160;1268;97959;-78
2023/03/29 09:00:49;;;;;;;9.70;5.40;;;;;;;3.32;56.05;101168.58;105061;1267;101415;-76
2023/03/29 09:03:44;;;;;;;8.60;5.00;;;;;;;3.37;56.65;101169.21;104839;1264;100356;-78
2023/03/29 09:06:33;;;;;;;9.80;4.40;;;;;;;3.46;57.06;101167.95;104997;1264;97940;-78
2023/03/29 09:09:33;;;;;;;5.70;3.50;;;;;;;3.55;56.43;101164.02;104872;1270;97978;-77
2023/03/29 09:12:54;;;;;;;7.30;3.90;;;;;;;3.61;56.49;101167.38;104856;1270;98491;-77
2023/03/29 09:15:51;;;;;;;7.10;3.80;;;;;;;3.66;56.15;101168.38;104842;1270;101349;-76
2023/03/29 09:19:10;;;;;;;5.80;3.30;;;;;;;3.70;56.15;101166.93;105029;1264;100147;-77
2023/03/29 09:21:59;;;;;;;6.00;3.10;;;;;;;3.74;56.12;101165.92;105250;1268;99028;-78
2023/03/29 09:25:04;;;;;;;7.00;3.50;;;;;;;3.79;55.80;101163.39;104843;1262;98031;-77
2023/03/29 09:28:03;;;;;;;6.10;3.50;;;;;;;3.84;55.80;101165.70;105017;1265;98521;-77
2023/03/29 09:31:23;;;;;;;5.20;3.30;;;;;;;3.90;55.73;101155.35;104975;1264;101362;-77
2023/03/29 09:34:14;;;;;;;5.70;2.30;;;;;;;3.95;55.22;101154.02;106279;1270;100414;-78
2023/03/29 09:37:28;;;;;;;10.20;3.00;;;;;;;3.98;54.93;101153.41;104988;1271;98620;-77
2023/03/29 09:40:19;;;;;;;5.10;3.00;;;;;;;4.04;54.79;101154.89;104980;1270;97965;-78
2023/03/29 09:43:34;;;;;;;4.40;2.50;;;;;;;4.06;54.23;101149.17;104992;1268;99388;-77
2023/03/29 09:46:27;;;;;;;4.90;3.30;;;;;;;4.12;53.96;101147.06;104848;1269;102097;-77
2023/03/29 09:49:20;;;;;;;3.90;2.60;;;;;;;4.15;53.46;101145.73;105065;1264;100729;-79
2023/03/29 09:52:11;;;;;;;5.30;2.90;;;;;;;4.23;53.98;101141.65;105191;1264;99596;-78
2023/03/29 09:55:00;;;;;;;5.80;3.30;;;;;;;4.36;54.78;101138.42;105350;1270;97973;-78
2023/03/29 09:58:00;;;;;;;8.20;3.30;;;;;;;4.53;54.53;101139.02;104944;1264;98484;-77
2023/03/29 10:00:48;;;;;;;5.80;3.10;;;;;;;4.68;53.60;101138.39;105079;1268;102859;-77
2023/03/29 10:03:35;;;;;;;4.20;2.50;;;;;;;4.76;53.11;101134.02;104922;1264;99902;-77
2023/03/29 10:06:35;;;;;;;4.90;3.20;;;;;;;4.87;53.10;101125.41;104923;1265;98119;-77
2023/03/29 10:09:23;;;;;;;4.00;2.70;;;;;;;4.97;52.95;101127.31;105008;1266;97987;-77
2023/03/29 10:12:13;;;;;;;4.90;2.80;;;;;;;5.02;52.23;101123.99;105027;1269;98083;-78
2023/03/29 10:14:59;;;;;;;4.70;2.60;;;;;;;5.07;51.96;101121.10;105260;1264;102243;-78
2023/03/29 10:17:46;;;;;;;5.60;3.30;;;;;;;5.13;51.39;101118.69;105033;1265;99962;-77
2023/03/29 10:20:37;;;;;;;3.80;2.40;;;;;;;5.20;51.45;101116.46;105087;1265;98064;-77
2023/03/29 10:23:22;;;;;;;6.70;3.10;;;;;;;5.28;50.73;101116.98;104869;1264;98953;-77
2023/03/29 10:26:27;;;;;;;5.80;2.80;;;;;;;5.33;51.01;101120.73;105002;1264;97886;-77
2023/03/29 10:29:12;;;;;;;8.90;3.80;;;;;;;5.44;50.54;101123.66;105109;1268;102253;-78
2023/03/29 10:31:58;;;;;;;8.30;3.60;;;;;;;5.48;49.97;101118.83;105230;1265;99669;-78
2023/03/29 10:34:46;;;;;;;4.30;2.70;;;;;;;5.50;49.16;101119.56;105139;1265;99005;-78
2023/03/29 10:37:32;;;;;;;7.10;3.10;;;;;;;5.47;49.12;101120.45;105080;1265;98002;-76
2023/03/29 10:40:25;;;;;;;6.00;2.80;;;;;;;5.52;48.81;101120.96;105112;1268;98710;-77
2023/03/29 10:43:13;;;;;;;6.90;3.60;;;;;;;5.56;48.07;101120.73;104765;1270;101731;-77
2023/03/29 10:46:26;;;;;;;7.20;4.00;;;;;;;5.57;48.05;101118.91;104944;1268;99173;-77
2023/03/29 10:49:20;;;;;;;7.70;4.20;;;;;;;5.59;48.27;101117.64;104881;1264;99004;-77
2023/03/29 10:52:06;;;;;;;7.60;4.30;;;;;;;5.63;48.32;101109.63;105136;1266;97915;-78
2023/03/29 10:54:55;;;;;;;7.50;4.60;;;;;;;5.68;47.41;101103.91;105006;1268;98584;-77
2023/03/29 10:57:43;;;;;;;7.90;4.90;;;;;;;5.66;46.98;101100.67;105004;1268;102563;-77
2023/03/29 11:00:53;;;;;;;6.90;4.20;;;;;;;5.66;46.70;101098.70;105041;1268;99214;-77
2023/03/29 11:04:01;;;;;;;8.50;4.50;;;;;;;5.69;46.26;101090.70;105185;1265;97972;-77
2023/03/29 11:07:03;;;;;;;7.70;4.60;;;;;;;5.77;46.72;101086.71;105113;1265;98007;-78
2023/03/29 11:10:00;;;;;;;8.90;4.50;;;;;;;5.84;45.74;101090.98;104969;1265;99738;-77
2023/03/29 11:12:56;;;;;;;7.10;4.40;;;;;;;5.88;45.69;101089.37;105392;1268;102383;-78
2023/03/29 11:16:03;;;;;;;10.70;5.30;;;;;;;5.95;45.84;101086.81;105015;1266;99104;-76
2023/03/29 11:19:26;;;;;;;8.70;4.80;;;;;;;5.98;45.27;101080.08;105005;1265;98746;-76
2023/03/29 11:22:30;;;;;;;9.40;5.10;;;;;;;6.00;45.15;101072.27;104883;1265;99147;-77
2023/03/29 11:25:23;;;;;;;9.20;4.60;;;;;;;6.03;45.33;101069.83;105116;1266;99581;-78
2023/03/29 11:28:23;;;;;;;7.40;3.80;;;;;;;6.12;46.36;101065.02;105296;1264;101399;-78
2023/03/29 11:31:40;;;;;;;5.90;3.50;;;;;;;6.30;46.57;101064.05;105079;1268;100134;-78
2023/03/29 11:34:54;;;;;;;8.20;4.20;;;;;;;6.44;45.46;101061.60;105102;1268;99032;-77
2023/03/29 11:37:58;;;;;;;5.10;3.30;;;;;;;6.52;44.70;101059.05;105134;1266;98300;-77
2023/03/29 11:40:53;;;;;;;6.90;4.10;;;;;;;6.59;44.57;101053.88;105278;1265;98471;-78
2023/03/29 11:43:51;;;;;;;5.00;3.20;;;;;;;6.67;44.30;101050.96;105345;1268;103165;-78
2023/03/29 11:46:41;;;;;;;5.50;3.10;;;;;;;6.75;44.59;101050.18;105000;1268;99093;-78
2023/03/29 11:49:36;;;;;;;5.20;3.50;;;;;;;6.82;44.42;101047.89;105185;1264;99012;-77
2023/03/29 11:52:31;;;;;;;5.40;3.20;;;;;;;6.82;44.01;101037.19;105319;1264;97949;-77
2023/03/29 11:55:22;;;;;;;5.20;3.30;;;;;;;6.80;43.43;101040.48;105155;1264;98593;-80
2023/03/29 11:58:28;;;;;;;10.90;3.80;;;;;;;6.78;43.27;101035.99;105323;1268;102156;-80
2023/03/29 12:01:24;;;;;;;5.70;3.30;;;;;;;6.81;43.86;101028.67;106057;1264;99248;-82
2023/03/29 12:04:21;;;;;;;7.30;3.30;;;;;;;6.88;44.30;101025.98;105956;1264;97983;-82
2023/03/29 12:07:18;;;;;;;3.60;2.70;;;;;;;6.95;44.05;101022.76;105345;1268;97978;-78
2023/03/29 12:10:35;;;;;;;4.70;2.90;;;;;;;7.03;43.84;101021.06;105028;1265;99403;-81
2023/03/29 12:13:27;;;;;;;3.30;2.10;;;;;;;7.09;43.05;101019.56;106079;1266;102678;-81
2023/03/29 12:16:33;;;;;;;4.20;2.40;;;;;;;7.12;43.09;101018.10;105984;1266;99685;-80
2023/03/29 12:19:25;;;;;;;2.70;1.90;;;;;;;7.16;42.72;101017.98;105560;1266;97873;-78
2023/03/29 12:22:10;;;;;;;3.90;2.30;;;;;;;7.20;41.97;101014.06;105341;1270;97983;-84
2023/03/29 12:25:05;;;;;;;5.60;2.70;;;;;;;7.23;42.08;101009.79;105987;1266;98496;-81
2023/03/29 12:28:22;;;;;;;3.70;2.40;;;;;;;7.29;42.33;101003.64;105894;1265;102675;-80
2023/03/29 12:31:23;;;;;;;3.50;2.30;;;;;;;7.35;41.81;100999.85;106058;1268;100514;-85
2023/03/29 12:34:29;;;;;;;3.70;2.10;;;;;;;7.39;42.06;101001.19;105768;1271;99003;-83
2023/03/29 12:37:23;;;;;;;3.80;2.20;;;;;;;7.45;42.05;100997.92;105945;1268;97980;-83
2023/03/29 12:40:39;;;;;;;4.40;2.00;;;;;;;7.53;42.20;100996.24;105760;1266;98409;-84
2023/03/29 12:43:45;;;;;;;4.20;2.00;;;;;;;7.60;41.59;100994.02;105771;1266;102003;-82
2023/03/29 12:46:43;;;;;;;5.90;2.20;;;;;;;7.66;41.48;100992.16;106408;1266;100107;-84
2023/03/29 12:49:33;;;;;;;4.80;1.90;;;;;;;7.73;40.97;100985.92;105769;1268;97965;-83
2023/03/29 12:52:33;;;;;;;3.90;1.80;;;;;;;7.78;39.98;100983.95;105746;1266;97891;-82
2023/03/29 12:55:33;;;;;;;4.00;2.10;;;;;;;7.83;39.22;100983.34;105728;1266;97898;-82
2023/03/29 12:58:46;;;;;;;4.20;2.40;;;;;;;7.85;39.13;100982.45;105415;1265;101365;-79
2023/03/29 13:01:35;;;;;;;5.80;2.90;;;;;;;7.92;39.42;100976.70;105692;1263;100124;-86
2023/03/29 13:04:21;;;;;;;3.20;2.30;;;;;;;8.01;39.54;100970.67;105846;1273;98853;-82
2023/03/29 13:07:26;;;;;;;2.80;2.30;;;;;;;8.10;39.41;100965.34;105899;1269;98005;-80
2023/03/29 13:10:36;;;;;;;8.50;5.20;;;;;;;8.17;38.76;100960.79;106029;1265;99789;-81
2023/03/29 13:13:49;;;;;;;6.30;4.10;;;;;;;8.24;38.71;100960.11;106020;1271;101519;-81